createdAt,value
2019-02-27T00:03:01.554Z,99.90
2019-02-27T00:08:06.569Z,99.90
2019-02-27T00:13:11.621Z,99.90
2019-02-27T00:18:16.665Z,99.90
2019-02-27T00:23:23.865Z,99.90
2019-02-27T00:28:28.304Z,99.90
2019-02-27T00:33:33.313Z,99.90
2019-02-27T00:38:38.341Z,99.90
2019-02-27T00:43:43.341Z,99.90
2019-02-27T00:48:48.360Z,99.90
2019-02-27T00:53:55.949Z,99.90
2019-02-27T00:59:00.786Z,99.90
2019-02-27T01:04:06.080Z,99.90
2019-02-27T01:09:11.345Z,99.90
2019-02-27T01:14:16.360Z,99.90
2019-02-27T01:19:21.408Z,99.90
2019-02-27T01:24:26.435Z,99.90
2019-02-27T01:29:31.426Z,99.90
2019-02-27T01:34:37.598Z,99.90
2019-02-27T01:39:44.080Z,99.90
2019-02-27T01:44:49.195Z,99.90
2019-02-27T01:49:54.533Z,99.90
2019-02-27T01:54:59.554Z,99.90
2019-02-27T02:00:06.306Z,99.90
2019-02-27T02:05:11.351Z,99.90
2019-02-27T02:10:16.592Z,99.90
2019-02-27T02:15:49.667Z,99.90
2019-02-27T02:21:22.082Z,99.90
2019-02-27T02:27:11.128Z,99.90
2019-02-27T02:32:25.947Z,99.90
2019-02-27T02:38:03.282Z,99.90
2019-02-27T02:43:47.140Z,99.90
2019-02-27T02:49:35.152Z,99.90
2019-02-27T02:55:02.855Z,99.90
2019-02-27T03:00:30.143Z,99.90
2019-02-27T03:06:16.476Z,99.90
2019-02-27T03:11:54.753Z,99.90
2019-02-27T03:17:29.407Z,99.90
2019-02-27T03:22:46.063Z,99.90
2019-02-27T03:28:50.044Z,99.90
2019-02-27T03:34:33.245Z,99.90
2019-02-27T03:40:17.951Z,99.90
2019-02-27T03:45:43.862Z,99.90
2019-02-27T03:51:24.356Z,99.90
2019-02-27T03:57:02.214Z,99.90
2019-02-27T04:02:50.176Z,99.90
2019-02-27T04:08:28.168Z,99.90
2019-02-27T04:13:33.191Z,99.90
2019-02-27T04:18:36.804Z,99.90
2019-02-27T04:23:47.830Z,99.90
2019-02-27T04:28:48.472Z,99.90
2019-02-27T04:33:53.502Z,99.90
2019-02-27T04:39:00.056Z,99.90
2019-02-27T04:44:06.185Z,99.90
2019-02-27T04:49:11.418Z,99.90
2019-02-27T04:54:16.464Z,99.90
2019-02-27T04:59:21.700Z,99.90
2019-02-27T05:04:26.718Z,99.90
2019-02-27T05:09:34.112Z,99.90
2019-02-27T05:14:38.407Z,99.90
2019-02-27T05:19:43.781Z,99.90
2019-02-27T05:24:48.799Z,99.90
2019-02-27T05:29:54.657Z,99.90
2019-02-27T05:34:59.672Z,99.90
2019-02-27T05:40:05.594Z,99.90
2019-02-27T05:45:12.318Z,99.90
2019-02-27T05:50:17.334Z,99.90
2019-02-27T05:55:22.376Z,99.90
2019-02-27T06:00:27.450Z,99.90
2019-02-27T06:05:33.615Z,99.90
2019-02-27T06:10:39.165Z,99.90
2019-02-27T06:15:44.181Z,99.90
2019-02-27T06:20:49.201Z,99.90
2019-02-27T06:25:59.126Z,99.90
2019-02-27T06:31:02.579Z,99.90
2019-02-27T06:36:08.471Z,99.90
2019-02-27T06:41:15.772Z,99.90
2019-02-27T06:46:20.767Z,99.90
2019-02-27T06:51:25.909Z,99.90
2019-02-27T06:56:30.936Z,99.90
2019-02-27T07:01:35.967Z,99.90
2019-02-27T07:06:40.980Z,99.90
2019-02-27T07:11:48.151Z,99.90
2019-02-27T07:16:57.015Z,99.90
2019-02-27T07:21:59.322Z,99.90
2019-02-27T07:27:04.361Z,99.90
2019-02-27T07:32:09.480Z,99.90
2019-02-27T07:37:14.497Z,99.90
2019-02-27T07:42:19.536Z,99.90
2019-02-27T07:47:24.543Z,99.90
2019-02-27T07:52:32.339Z,99.90
2019-02-27T07:57:36.177Z,99.90
2019-02-27T08:02:41.199Z,99.90
2019-02-27T08:07:49.040Z,99.90
2019-02-27T08:12:55.653Z,99.90
2019-02-27T08:17:59.957Z,99.90
2019-02-27T08:23:06.823Z,99.90
2019-02-27T08:28:12.143Z,99.90
2019-02-27T08:33:17.166Z,99.90
2019-02-27T08:38:23.656Z,99.90
2019-02-27T08:43:30.403Z,99.90
2019-02-27T08:48:37.323Z,99.90
2019-02-27T08:53:42.632Z,99.90
2019-02-27T08:58:47.992Z,99.90
2019-02-27T09:03:53.123Z,99.90
2019-02-27T09:08:58.174Z,99.90
2019-02-27T09:14:03.247Z,99.90
2019-02-27T09:19:10.178Z,99.90
2019-02-27T09:24:15.282Z,99.90
2019-02-27T09:29:22.191Z,99.90
2019-02-27T09:34:27.475Z,99.90
2019-02-27T09:39:32.681Z,99.90
2019-02-27T09:44:39.445Z,99.90
2019-02-27T09:49:44.438Z,99.90
2019-02-27T09:54:49.724Z,99.90
2019-02-27T09:59:54.756Z,99.90
2019-02-27T10:05:03.080Z,99.90
2019-02-27T10:10:10.194Z,99.90
2019-02-27T10:15:13.493Z,99.90
2019-02-27T10:20:18.682Z,99.90
2019-02-27T10:25:23.705Z,99.90
2019-02-27T10:30:29.094Z,99.90
2019-02-27T10:35:34.983Z,99.90
2019-02-27T10:40:40.713Z,99.90
2019-02-27T10:45:48.795Z,99.90
2019-02-27T10:50:52.662Z,99.90
2019-02-27T10:55:58.055Z,99.90
2019-02-27T11:01:03.179Z,99.90
2019-02-27T11:06:10.057Z,99.90
2019-02-27T11:11:16.393Z,99.90
2019-02-27T11:16:22.120Z,99.90
2019-02-27T11:21:27.485Z,99.90
2019-02-27T11:26:33.363Z,99.90
2019-02-27T11:31:39.075Z,99.90
2019-02-27T11:36:44.186Z,99.90
2019-02-27T11:41:49.240Z,99.90
2019-02-27T11:46:58.660Z,99.90
2019-02-27T11:52:20.029Z,99.90
2019-02-27T11:57:27.324Z,99.90
2019-02-27T12:02:37.060Z,99.90
2019-02-27T12:07:38.473Z,99.90
2019-02-27T12:12:43.547Z,99.90
2019-02-27T12:17:48.910Z,98.60
2019-02-27T12:22:54.041Z,99.90
2019-02-27T12:27:59.322Z,99.90
2019-02-27T12:33:04.661Z,96.00
2019-02-27T12:38:11.397Z,92.40
2019-02-27T12:43:18.246Z,93.90
2019-02-27T12:48:23.345Z,90.50
2019-02-27T12:53:28.582Z,89.50
2019-02-27T12:58:33.616Z,90.80
2019-02-27T13:03:42.249Z,90.00
2019-02-27T13:08:45.358Z,91.80
2019-02-27T13:13:50.386Z,92.60
2019-02-27T13:18:55.567Z,91.90
2019-02-27T13:24:01.259Z,91.70
2019-02-27T13:29:07.611Z,90.90
2019-02-27T13:34:13.890Z,91.60
2019-02-27T13:39:19.597Z,91.20
2019-02-27T13:44:24.629Z,92.20
2019-02-27T13:49:29.657Z,92.90
2019-02-27T13:54:37.989Z,97.10
2019-02-27T13:59:42.183Z,94.10
2019-02-27T14:04:48.091Z,97.60
2019-02-27T14:09:53.295Z,94.00
2019-02-27T14:14:58.322Z,88.10
2019-02-27T14:20:05.262Z,90.00
2019-02-27T14:25:12.040Z,92.60
2019-02-27T14:30:19.557Z,94.10
2019-02-27T14:35:25.230Z,95.60
2019-02-27T14:40:30.356Z,92.50
2019-02-27T14:45:39.870Z,93.20
2019-02-27T14:50:42.098Z,92.90
2019-02-27T14:55:47.118Z,92.50
2019-02-27T15:00:52.209Z,92.80
2019-02-27T15:05:57.234Z,95.30
2019-02-27T15:11:02.314Z,96.90
2019-02-27T15:16:07.389Z,97.80
2019-02-27T15:21:13.239Z,99.80
2019-02-27T15:26:18.992Z,99.90
2019-02-27T15:31:24.066Z,99.90
2019-02-27T15:36:30.216Z,99.90
2019-02-27T15:41:36.001Z,99.90
2019-02-27T15:46:41.180Z,99.90
2019-02-27T15:51:46.259Z,99.90
2019-02-27T15:56:51.294Z,99.90
2019-02-27T16:02:02.214Z,99.90
2019-02-27T16:07:03.083Z,99.90
2019-02-27T16:12:08.097Z,99.90
2019-02-27T16:17:13.136Z,99.90
2019-02-27T16:22:18.205Z,99.90
2019-02-27T16:27:23.240Z,99.90
2019-02-27T16:32:28.318Z,99.90
2019-02-27T16:37:33.441Z,99.90
2019-02-27T16:42:39.227Z,99.90
2019-02-27T16:47:45.011Z,99.90
2019-02-27T16:52:51.097Z,99.90
2019-02-27T16:57:57.391Z,99.90
2019-02-27T17:03:02.911Z,99.90
2019-02-27T17:08:07.963Z,99.90
2019-02-27T17:13:15.495Z,99.90
2019-02-27T17:18:19.716Z,99.90
2019-02-27T17:23:24.763Z,99.90
2019-02-27T17:28:29.802Z,99.90
2019-02-27T17:33:35.193Z,99.90
2019-02-27T17:38:41.796Z,99.90
2019-02-27T17:43:46.916Z,99.90
2019-02-27T17:48:51.961Z,99.90
2019-02-27T17:53:57.914Z,99.90
2019-02-27T17:59:05.307Z,99.90
2019-02-27T18:04:14.181Z,99.90
2019-02-27T18:09:17.430Z,99.90
2019-02-27T18:14:22.454Z,99.90
2019-02-27T18:19:27.490Z,99.90
2019-02-27T18:24:34.183Z,99.90
2019-02-27T18:29:41.280Z,99.90
2019-02-27T18:34:46.159Z,99.90
2019-02-27T18:39:51.365Z,99.90
2019-02-27T18:44:56.400Z,99.90
2019-02-27T18:50:01.456Z,99.90
2019-02-27T18:55:06.905Z,99.90
2019-02-27T19:00:16.266Z,99.90
2019-02-27T19:05:21.730Z,99.90
2019-02-27T19:10:26.799Z,99.90
2019-02-27T19:15:32.405Z,99.90
2019-02-27T19:20:39.653Z,99.90
2019-02-27T19:25:44.918Z,99.90
2019-02-27T19:30:49.958Z,99.90
2019-02-27T19:35:56.403Z,99.90
2019-02-27T19:41:04.123Z,99.90
2019-02-27T19:46:10.065Z,99.90
2019-02-27T19:51:17.074Z,99.90
2019-02-27T19:56:22.098Z,99.90
2019-02-27T20:01:27.253Z,99.90
2019-02-27T20:06:32.247Z,99.90
2019-02-27T20:11:39.929Z,99.90
2019-02-27T20:16:44.024Z,99.90
2019-02-27T20:21:49.065Z,99.90
2019-02-27T20:26:54.863Z,99.90
2019-02-27T20:32:01.779Z,99.90
2019-02-27T20:37:07.324Z,99.90
2019-02-27T20:42:13.748Z,99.90
2019-02-27T20:47:21.850Z,99.90
2019-02-27T20:52:26.156Z,99.90
2019-02-27T20:57:31.185Z,99.90
2019-02-27T21:02:36.264Z,99.90
2019-02-27T21:07:41.633Z,99.90
2019-02-27T21:12:54.086Z,99.90
2019-02-27T21:17:57.814Z,99.90
2019-02-27T21:23:01.262Z,99.90
2019-02-27T21:28:07.579Z,99.90
2019-02-27T21:33:13.040Z,99.90
2019-02-27T21:38:18.103Z,99.90
2019-02-27T21:43:25.586Z,99.90
2019-02-27T21:48:29.971Z,99.90
2019-02-27T21:53:35.225Z,99.90
2019-02-27T21:58:40.456Z,99.90
2019-02-27T22:03:46.578Z,99.90
2019-02-27T22:08:51.760Z,99.90
2019-02-27T22:13:56.815Z,99.90
2019-02-27T22:19:02.001Z,99.90
2019-02-27T22:24:07.393Z,99.90
2019-02-27T22:29:12.722Z,99.90
2019-02-27T22:34:19.240Z,99.90
2019-02-27T22:39:24.677Z,99.90
2019-02-27T22:44:30.333Z,99.90
2019-02-27T22:49:35.602Z,99.90
2019-02-27T22:54:40.758Z,99.90
2019-02-27T22:59:46.636Z,99.90
2019-02-27T23:04:51.920Z,99.90
2019-02-27T23:09:57.491Z,99.90
2019-02-27T23:15:03.457Z,99.90
2019-02-27T23:20:12.053Z,99.90
2019-02-27T23:25:17.135Z,99.90
2019-02-27T23:30:24.573Z,99.90
2019-02-27T23:35:34.424Z,99.90
2019-02-27T23:40:39.462Z,99.90
2019-02-27T23:45:45.227Z,99.90
2019-02-27T23:50:50.477Z,99.90
2019-02-27T23:55:55.528Z,99.90
